sensor_id;sensor_type;location;lat;lon;timestamp;pressure;altitude;pressure_sealevel;temperature;humidity
38616;BME280;24370;51.986;4.666;2023-11-18T00:00:19;102383.66;;;14.91;51.39
38616;BME280;24370;51.986;4.666;2023-11-18T00:02:45;102373.13;;;14.85;51.56
38616;BME280;24370;51.986;4.666;2023-11-18T00:05:11;102385.50;;;14.27;52.92
38616;BME280;24370;51.986;4.666;2023-11-18T00:07:37;102384.56;;;14.85;51.38
38616;BME280;24370;51.986;4.666;2023-11-18T00:10:03;102374.94;;;14.52;52.34
38616;BME280;24370;51.986;4.666;2023-11-18T00:12:29;102371.44;;;14.50;52.47
38616;BME280;24370;51.986;4.666;2023-11-18T00:14:55;102371.44;;;14.68;51.50
38616;BME280;24370;51.986;4.666;2023-11-18T00:17:20;102356.50;;;14.75;51.17
38616;BME280;24370;51.986;4.666;2023-11-18T00:19:46;102360.91;;;14.74;51.08
38616;BME280;24370;51.986;4.666;2023-11-18T00:22:11;102360.00;;;14.72;50.95
38616;BME280;24370;51.986;4.666;2023-11-18T00:24:37;102367.94;;;14.54;51.17
38616;BME280;24370;51.986;4.666;2023-11-18T00:27:03;102377.63;;;14.05;52.54
38616;BME280;24370;51.986;4.666;2023-11-18T00:29:33;102375.00;;;14.05;53.15
38616;BME280;24370;51.986;4.666;2023-11-18T00:31:58;102368.78;;;14.54;51.35
38616;BME280;24370;51.986;4.666;2023-11-18T00:34:24;102366.22;;;14.37;51.65
38616;BME280;24370;51.986;4.666;2023-11-18T00:36:49;102374.13;;;14.00;52.49
38616;BME280;24370;51.986;4.666;2023-11-18T00:39:15;102379.34;;;14.53;51.18
38616;BME280;24370;51.986;4.666;2023-11-18T00:41:40;102376.75;;;14.13;51.96
38616;BME280;24370;51.986;4.666;2023-11-18T00:44:05;102367.94;;;14.51;50.82
38616;BME280;24370;51.986;4.666;2023-11-18T00:46:32;102377.59;;;14.67;50.32
38616;BME280;24370;51.986;4.666;2023-11-18T00:49:01;102382.84;;;14.52;51.04
38616;BME280;24370;51.986;4.666;2023-11-18T00:51:27;102387.25;;;14.48;50.93
38616;BME280;24370;51.986;4.666;2023-11-18T00:53:53;102380.22;;;14.58;51.00
38616;BME280;24370;51.986;4.666;2023-11-18T00:56:20;102383.72;;;14.54;51.57
38616;BME280;24370;51.986;4.666;2023-11-18T00:58:47;102381.09;;;14.66;51.52
38616;BME280;24370;51.986;4.666;2023-11-18T01:01:12;102381.97;;;14.59;51.24
38616;BME280;24370;51.986;4.666;2023-11-18T01:03:38;102382.75;;;14.95;50.44
38616;BME280;24370;51.986;4.666;2023-11-18T01:06:04;102384.41;;;15.19;49.91
38616;BME280;24370;51.986;4.666;2023-11-18T01:08:31;102387.16;;;14.88;50.60
38616;BME280;24370;51.986;4.666;2023-11-18T01:10:56;102387.06;;;15.15;50.17
38616;BME280;24370;51.986;4.666;2023-11-18T01:13:22;102385.44;;;14.73;51.52
38616;BME280;24370;51.986;4.666;2023-11-18T01:15:48;102385.53;;;14.18;52.66
38616;BME280;24370;51.986;4.666;2023-11-18T01:18:14;102382.84;;;14.70;51.53
38616;BME280;24370;51.986;4.666;2023-11-18T01:20:40;102382.00;;;14.34;53.12
38616;BME280;24370;51.986;4.666;2023-11-18T01:23:05;102378.47;;;14.41;52.50
38616;BME280;24370;51.986;4.666;2023-11-18T01:25:31;102381.09;;;14.35;52.23
38616;BME280;24370;51.986;4.666;2023-11-18T01:27:56;102378.38;;;14.91;51.01
38616;BME280;24370;51.986;4.666;2023-11-18T01:30:21;102388.88;;;15.03;51.14
38616;BME280;24370;51.986;4.666;2023-11-18T01:32:49;102392.53;;;14.13;53.55
38616;BME280;24370;51.986;4.666;2023-11-18T01:35:14;102398.63;;;14.55;51.76
38616;BME280;24370;51.986;4.666;2023-11-18T01:37:40;102402.06;;;14.86;51.54
38616;BME280;24370;51.986;4.666;2023-11-18T01:40:06;102402.03;;;14.99;51.43
38616;BME280;24370;51.986;4.666;2023-11-18T01:42:33;102400.22;;;15.22;50.36
38616;BME280;24370;51.986;4.666;2023-11-18T01:44:58;102396.72;;;15.11;50.54
38616;BME280;24370;51.986;4.666;2023-11-18T01:47:26;102396.88;;;14.66;51.10
38616;BME280;24370;51.986;4.666;2023-11-18T01:49:52;102399.34;;;15.16;50.29
38616;BME280;24370;51.986;4.666;2023-11-18T01:52:18;102399.50;;;14.75;51.48
38616;BME280;24370;51.986;4.666;2023-11-18T01:54:44;102407.44;;;14.63;51.89
38616;BME280;24370;51.986;4.666;2023-11-18T01:57:10;102403.78;;;15.00;50.86
38616;BME280;24370;51.986;4.666;2023-11-18T01:59:36;102397.53;;;15.33;49.94
38616;BME280;24370;51.986;4.666;2023-11-18T02:02:04;102402.16;;;14.52;52.55
38616;BME280;24370;51.986;4.666;2023-11-18T02:04:29;102392.41;;;14.99;51.38
38616;BME280;24370;51.986;4.666;2023-11-18T02:06:56;102394.03;;;15.28;50.68
38616;BME280;24370;51.986;4.666;2023-11-18T02:09:22;102392.22;;;15.39;50.43
38616;BME280;24370;51.986;4.666;2023-11-18T02:14:31;102396.00;;;14.58;51.85
38616;BME280;24370;51.986;4.666;2023-11-18T02:16:59;102401.16;;;15.07;51.01
38616;BME280;24370;51.986;4.666;2023-11-18T02:19:28;102401.25;;;14.75;50.96
38616;BME280;24370;51.986;4.666;2023-11-18T02:21:55;102387.88;;;15.26;50.46
38616;BME280;24370;51.986;4.666;2023-11-18T02:24:29;102392.44;;;14.90;50.86
38616;BME280;24370;51.986;4.666;2023-11-18T02:27:06;102395.09;;;14.70;51.63
38616;BME280;24370;51.986;4.666;2023-11-18T02:29:40;102380.97;;;15.03;50.83
38616;BME280;24370;51.986;4.666;2023-11-18T02:32:23;102374.91;;;14.83;51.59
38616;BME280;24370;51.986;4.666;2023-11-18T02:37:40;102362.72;;;14.07;53.73
38616;BME280;24370;51.986;4.666;2023-11-18T02:40:11;102375.88;;;14.09;53.83
38616;BME280;24370;51.986;4.666;2023-11-18T02:42:44;102370.59;;;13.72;55.06
38616;BME280;24370;51.986;4.666;2023-11-18T02:45:13;102362.72;;;13.97;53.77
38616;BME280;24370;51.986;4.666;2023-11-18T02:47:43;102365.31;;;14.37;53.54
38616;BME280;24370;51.986;4.666;2023-11-18T02:50:09;102362.69;;;14.32;53.44
38616;BME280;24370;51.986;4.666;2023-11-18T02:52:39;102359.22;;;14.24;53.92
38616;BME280;24370;51.986;4.666;2023-11-18T02:55:06;102352.03;;;14.97;51.87
38616;BME280;24370;51.986;4.666;2023-11-18T02:57:38;102351.09;;;15.09;51.57
38616;BME280;24370;51.986;4.666;2023-11-18T03:00:05;102342.53;;;14.39;52.85
38616;BME280;24370;51.986;4.666;2023-11-18T03:02:31;102349.28;;;15.20;50.83
38616;BME280;24370;51.986;4.666;2023-11-18T03:04:57;102357.28;;;14.97;51.38
38616;BME280;24370;51.986;4.666;2023-11-18T03:07:22;102349.47;;;14.74;52.56
38616;BME280;24370;51.986;4.666;2023-11-18T03:09:48;102347.59;;;15.05;51.50
38616;BME280;24370;51.986;4.666;2023-11-18T03:12:13;102342.56;;;14.25;53.23
38616;BME280;24370;51.986;4.666;2023-11-18T03:14:39;102348.44;;;15.17;51.38
38616;BME280;24370;51.986;4.666;2023-11-18T03:17:04;102346.00;;;14.69;52.77
38616;BME280;24370;51.986;4.666;2023-11-18T03:19:32;102349.53;;;14.37;53.14
38616;BME280;24370;51.986;4.666;2023-11-18T03:22:02;102342.50;;;14.59;53.16
38616;BME280;24370;51.986;4.666;2023-11-18T03:24:28;102331.66;;;15.30;51.65
38616;BME280;24370;51.986;4.666;2023-11-18T03:26:55;102321.25;;;15.12;51.65
38616;BME280;24370;51.986;4.666;2023-11-18T03:29:20;102318.88;;;14.25;53.48
38616;BME280;24370;51.986;4.666;2023-11-18T03:31:45;102294.09;;;14.97;52.23
38616;BME280;24370;51.986;4.666;2023-11-18T03:34:14;102286.06;;;15.26;51.50
38616;BME280;24370;51.986;4.666;2023-11-18T03:36:39;102286.31;;;14.74;52.11
38616;BME280;24370;51.986;4.666;2023-11-18T03:39:04;102285.47;;;14.58;52.85
38616;BME280;24370;51.986;4.666;2023-11-18T03:41:31;102276.63;;;14.87;52.12
38616;BME280;24370;51.986;4.666;2023-11-18T03:43:57;102278.28;;;15.03;52.23
38616;BME280;24370;51.986;4.666;2023-11-18T03:46:22;102274.09;;;14.53;52.98
38616;BME280;24370;51.986;4.666;2023-11-18T03:48:47;102260.78;;;14.93;52.21
38616;BME280;24370;51.986;4.666;2023-11-18T03:51:13;102276.75;;;14.47;53.04
38616;BME280;24370;51.986;4.666;2023-11-18T03:53:42;102272.41;;;14.32;54.15
38616;BME280;24370;51.986;4.666;2023-11-18T03:56:07;102269.81;;;14.21;54.60
38616;BME280;24370;51.986;4.666;2023-11-18T03:58:33;102264.63;;;13.68;55.55
38616;BME280;24370;51.986;4.666;2023-11-18T04:01:01;102262.56;;;14.91;52.25
38616;BME280;24370;51.986;4.666;2023-11-18T04:03:26;102260.78;;;14.90;51.90
38616;BME280;24370;51.986;4.666;2023-11-18T04:05:52;102268.84;;;14.48;53.18
38616;BME280;24370;51.986;4.666;2023-11-18T04:08:17;102253.50;;;15.32;51.64
38616;BME280;24370;51.986;4.666;2023-11-18T04:10:42;102246.88;;;14.68;52.11
38616;BME280;24370;51.986;4.666;2023-11-18T04:13:08;102239.88;;;14.65;53.52
38616;BME280;24370;51.986;4.666;2023-11-18T04:15:33;102237.22;;;14.67;52.99
38616;BME280;24370;51.986;4.666;2023-11-18T04:18:00;102239.88;;;14.65;53.29
38616;BME280;24370;51.986;4.666;2023-11-18T04:20:26;102225.91;;;14.40;53.33
38616;BME280;24370;51.986;4.666;2023-11-18T04:22:51;102218.81;;;14.59;52.99
38616;BME280;24370;51.986;4.666;2023-11-18T04:25:16;102217.16;;;14.35;53.58
38616;BME280;24370;51.986;4.666;2023-11-18T04:27:42;102216.03;;;14.90;52.70
38616;BME280;24370;51.986;4.666;2023-11-18T04:30:07;102219.72;;;14.50;53.25
38616;BME280;24370;51.986;4.666;2023-11-18T04:32:37;102223.28;;;14.34;53.30
38616;BME280;24370;51.986;4.666;2023-11-18T04:35:03;102213.38;;;14.95;52.56
38616;BME280;24370;51.986;4.666;2023-11-18T04:37:37;102217.94;;;14.65;53.31
38616;BME280;24370;51.986;4.666;2023-11-18T04:40:02;102218.81;;;14.62;52.72
38616;BME280;24370;51.986;4.666;2023-11-18T04:42:28;102215.31;;;14.55;52.97
38616;BME280;24370;51.986;4.666;2023-11-18T04:44:55;102209.97;;;14.79;52.76
38616;BME280;24370;51.986;4.666;2023-11-18T04:47:21;102208.25;;;14.74;53.31
38616;BME280;24370;51.986;4.666;2023-11-18T04:49:46;102208.41;;;14.31;53.06
38616;BME280;24370;51.986;4.666;2023-11-18T04:52:12;102203.06;;;14.53;53.37
38616;BME280;24370;51.986;4.666;2023-11-18T04:54:37;102199.44;;;14.79;52.56
38616;BME280;24370;51.986;4.666;2023-11-18T04:57:02;102196.16;;;14.24;53.68
38616;BME280;24370;51.986;4.666;2023-11-18T04:59:28;102189.78;;;14.81;52.28
38616;BME280;24370;51.986;4.666;2023-11-18T05:01:56;102187.03;;;14.99;51.38
38616;BME280;24370;51.986;4.666;2023-11-18T05:04:21;102181.97;;;14.62;52.83
38616;BME280;24370;51.986;4.666;2023-11-18T05:06:46;102179.06;;;15.07;51.94
38616;BME280;24370;51.986;4.666;2023-11-18T05:09:12;102178.72;;;14.01;53.89
38616;BME280;24370;51.986;4.666;2023-11-18T05:11:37;102171.28;;;14.90;51.86
38616;BME280;24370;51.986;4.666;2023-11-18T05:14:04;102165.78;;;15.24;51.38
38616;BME280;24370;51.986;4.666;2023-11-18T05:16:30;102163.88;;;15.38;50.86
38616;BME280;24370;51.986;4.666;2023-11-18T05:18:55;102160.00;;;14.71;51.77
38616;BME280;24370;51.986;4.666;2023-11-18T05:21:21;102151.53;;;14.02;53.54
38616;BME280;24370;51.986;4.666;2023-11-18T05:23:46;102161.09;;;14.19;53.13
38616;BME280;24370;51.986;4.666;2023-11-18T05:26:12;102160.22;;;14.21;53.21
38616;BME280;24370;51.986;4.666;2023-11-18T05:28:37;102163.56;;;14.61;52.63
38616;BME280;24370;51.986;4.666;2023-11-18T05:31:04;102150.72;;;13.85;54.25
38616;BME280;24370;51.986;4.666;2023-11-18T05:33:30;102146.31;;;13.87;55.15
38616;BME280;24370;51.986;4.666;2023-11-18T05:35:56;102149.84;;;13.89;54.17
38616;BME280;24370;51.986;4.666;2023-11-18T05:38:22;102144.38;;;14.37;53.35
38616;BME280;24370;51.986;4.666;2023-11-18T05:40:49;102130.97;;;14.85;52.41
38616;BME280;24370;51.986;4.666;2023-11-18T05:43:31;102130.97;;;14.85;51.83
38616;BME280;24370;51.986;4.666;2023-11-18T05:46:05;102144.44;;;14.21;52.83
38616;BME280;24370;51.986;4.666;2023-11-18T05:48:47;102139.84;;;14.71;52.20
38616;BME280;24370;51.986;4.666;2023-11-18T05:51:13;102130.97;;;14.88;51.57
38616;BME280;24370;51.986;4.666;2023-11-18T05:53:40;102127.19;;;15.18;50.67
38616;BME280;24370;51.986;4.666;2023-11-18T05:56:06;102105.94;;;15.38;50.63
38616;BME280;24370;51.986;4.666;2023-11-18T05:58:32;102113.09;;;15.24;50.47
38616;BME280;24370;51.986;4.666;2023-11-18T06:00:58;102123.66;;;15.21;50.78
38616;BME280;24370;51.986;4.666;2023-11-18T06:03:23;102127.31;;;15.04;51.50
38616;BME280;24370;51.986;4.666;2023-11-18T06:05:48;102125.59;;;15.00;51.94
38616;BME280;24370;51.986;4.666;2023-11-18T06:08:14;102125.63;;;14.94;51.64
38616;BME280;24370;51.986;4.666;2023-11-18T06:10:39;102125.72;;;14.82;52.19
38616;BME280;24370;51.986;4.666;2023-11-18T06:13:05;102112.66;;;15.70;50.11
38616;BME280;24370;51.986;4.666;2023-11-18T06:15:31;102096.59;;;15.03;51.67
38616;BME280;24370;51.986;4.666;2023-11-18T06:17:58;102091.63;;;14.66;51.70
38616;BME280;24370;51.986;4.666;2023-11-18T06:20:23;102099.59;;;14.51;52.20
38616;BME280;24370;51.986;4.666;2023-11-18T06:22:49;102095.38;;;15.38;50.17
38616;BME280;24370;51.986;4.666;2023-11-18T06:25:14;102087.88;;;14.98;51.86
38616;BME280;24370;51.986;4.666;2023-11-18T06:27:43;102099.34;;;14.91;52.36
38616;BME280;24370;51.986;4.666;2023-11-18T06:30:11;102102.78;;;14.99;51.09
38616;BME280;24370;51.986;4.666;2023-11-18T06:32:37;102099.38;;;14.85;51.37
38616;BME280;24370;51.986;4.666;2023-11-18T06:35:04;102103.13;;;14.43;52.15
38616;BME280;24370;51.986;4.666;2023-11-18T06:37:33;102088.41;;;15.37;50.98
38616;BME280;24370;51.986;4.666;2023-11-18T06:39:59;102082.34;;;15.29;50.95
38616;BME280;24370;51.986;4.666;2023-11-18T06:42:25;102085.09;;;15.17;51.31
38616;BME280;24370;51.986;4.666;2023-11-18T06:44:50;102078.78;;;15.30;50.50
38616;BME280;24370;51.986;4.666;2023-11-18T06:47:15;102095.81;;;14.93;51.32
38616;BME280;24370;51.986;4.666;2023-11-18T06:49:44;102087.59;;;15.29;51.04
38616;BME280;24370;51.986;4.666;2023-11-18T06:52:10;102087.44;;;15.44;50.55
38616;BME280;24370;51.986;4.666;2023-11-18T06:54:41;102088.75;;;14.97;51.22
38616;BME280;24370;51.986;4.666;2023-11-18T06:57:06;102082.75;;;14.80;51.82
38616;BME280;24370;51.986;4.666;2023-11-18T06:59:32;102091.34;;;14.99;51.56
38616;BME280;24370;51.986;4.666;2023-11-18T07:01:57;102088.41;;;15.34;50.87
38616;BME280;24370;51.986;4.666;2023-11-18T07:04:23;102084.91;;;15.34;50.73
38616;BME280;24370;51.986;4.666;2023-11-18T07:06:49;102079.50;;;15.46;50.78
38616;BME280;24370;51.986;4.666;2023-11-18T07:09:14;102092.47;;;14.68;52.25
38616;BME280;24370;51.986;4.666;2023-11-18T07:11:43;102100.06;;;15.05;51.36
38616;BME280;24370;51.986;4.666;2023-11-18T07:14:10;102099.53;;;14.57;52.28
38616;BME280;24370;51.986;4.666;2023-11-18T07:16:39;102090.34;;;15.18;51.36
38616;BME280;24370;51.986;4.666;2023-11-18T07:19:05;102097.25;;;15.27;51.07
38616;BME280;24370;51.986;4.666;2023-11-18T07:21:30;102102.25;;;15.55;50.47
38616;BME280;24370;51.986;4.666;2023-11-18T07:23:56;102105.31;;;15.12;50.67
38616;BME280;24370;51.986;4.666;2023-11-18T07:26:22;102103.59;;;15.07;51.57
38616;BME280;24370;51.986;4.666;2023-11-18T07:28:49;102107.31;;;15.73;50.18
38616;BME280;24370;51.986;4.666;2023-11-18T07:31:14;102109.25;;;15.56;50.13
38616;BME280;24370;51.986;4.666;2023-11-18T07:33:43;102102.19;;;14.63;51.35
38616;BME280;24370;51.986;4.666;2023-11-18T07:36:10;102110.09;;;14.54;53.07
38616;BME280;24370;51.986;4.666;2023-11-18T07:38:36;102111.78;;;14.61;52.78
38616;BME280;24370;51.986;4.666;2023-11-18T07:41:02;102095.66;;;15.10;51.92
38616;BME280;24370;51.986;4.666;2023-11-18T07:43:28;102094.59;;;15.33;50.62
38616;BME280;24370;51.986;4.666;2023-11-18T07:45:53;102093.50;;;14.41;53.18
38616;BME280;24370;51.986;4.666;2023-11-18T07:48:19;102083.75;;;14.63;53.46
38616;BME280;24370;51.986;4.666;2023-11-18T07:50:46;102086.31;;;14.75;53.07
38616;BME280;24370;51.986;4.666;2023-11-18T07:53:12;102087.13;;;14.79;52.33
38616;BME280;24370;51.986;4.666;2023-11-18T07:55:38;102077.59;;;14.63;52.54
38616;BME280;24370;51.986;4.666;2023-11-18T07:58:08;102085.13;;;15.10;51.90
38616;BME280;24370;51.986;4.666;2023-11-18T08:00:42;102068.91;;;14.48;53.10
38616;BME280;24370;51.986;4.666;2023-11-18T08:03:08;102073.03;;;14.85;52.91
38616;BME280;24370;51.986;4.666;2023-11-18T08:05:44;102069.84;;;14.36;53.66
38616;BME280;24370;51.986;4.666;2023-11-18T08:08:13;102062.44;;;14.94;52.01
38616;BME280;24370;51.986;4.666;2023-11-18T08:10:42;102066.38;;;14.31;54.13
38616;BME280;24370;51.986;4.666;2023-11-18T08:13:08;102067.00;;;14.75;52.63
38616;BME280;24370;51.986;4.666;2023-11-18T08:15:43;102057.28;;;14.83;52.53
38616;BME280;24370;51.986;4.666;2023-11-18T08:18:11;102065.72;;;15.21;51.02
38616;BME280;24370;51.986;4.666;2023-11-18T08:20:37;102060.81;;;14.78;52.27
38616;BME280;24370;51.986;4.666;2023-11-18T08:23:03;102054.28;;;15.25;51.67
38616;BME280;24370;51.986;4.666;2023-11-18T08:25:30;102041.56;;;14.75;52.48
38616;BME280;24370;51.986;4.666;2023-11-18T08:27:55;102047.41;;;15.05;52.49
38616;BME280;24370;51.986;4.666;2023-11-18T08:30:21;102059.47;;;15.31;51.61
38616;BME280;24370;51.986;4.666;2023-11-18T08:32:48;102049.84;;;15.27;51.89
38616;BME280;24370;51.986;4.666;2023-11-18T08:35:14;102046.25;;;15.37;51.59
38616;BME280;24370;51.986;4.666;2023-11-18T08:37:40;102041.56;;;14.72;53.25
38616;BME280;24370;51.986;4.666;2023-11-18T08:40:07;102032.84;;;14.67;54.07
38616;BME280;24370;51.986;4.666;2023-11-18T08:42:47;102027.75;;;15.40;51.83
38616;BME280;24370;51.986;4.666;2023-11-18T08:45:16;102028.97;;;15.08;53.28
38616;BME280;24370;51.986;4.666;2023-11-18T08:47:43;102012.16;;;14.12;55.46
38616;BME280;24370;51.986;4.666;2023-11-18T08:50:10;102009.34;;;14.38;55.43
38616;BME280;24370;51.986;4.666;2023-11-18T08:52:38;101992.38;;;14.81;54.72
38616;BME280;24370;51.986;4.666;2023-11-18T08:55:11;101995.69;;;13.77;57.51
38616;BME280;24370;51.986;4.666;2023-11-18T08:57:46;101984.72;;;14.48;55.55
38616;BME280;24370;51.986;4.666;2023-11-18T09:00:29;101986.44;;;14.54;55.99
38616;BME280;24370;51.986;4.666;2023-11-18T09:03:31;101980.56;;;14.18;57.35
38616;BME280;24370;51.986;4.666;2023-11-18T09:06:06;101980.13;;;14.80;55.45
38616;BME280;24370;51.986;4.666;2023-11-18T09:08:42;101967.00;;;14.72;56.31
38616;BME280;24370;51.986;4.666;2023-11-18T09:11:09;101968.34;;;14.11;57.86
38616;BME280;24370;51.986;4.666;2023-11-18T09:13:43;101953.59;;;13.83;58.67
38616;BME280;24370;51.986;4.666;2023-11-18T09:16:10;101937.25;;;14.62;57.18
38616;BME280;24370;51.986;4.666;2023-11-18T09:18:38;101911.69;;;14.80;57.00
38616;BME280;24370;51.986;4.666;2023-11-18T09:21:04;101908.84;;;13.97;58.10
38616;BME280;24370;51.986;4.666;2023-11-18T09:23:39;101913.19;;;14.03;59.75
38616;BME280;24370;51.986;4.666;2023-11-18T09:26:05;101910.84;;;13.58;61.49
38616;BME280;24370;51.986;4.666;2023-11-18T09:28:33;101915.72;;;14.17;58.92
38616;BME280;24370;51.986;4.666;2023-11-18T09:31:04;101928.56;;;14.54;59.11
38616;BME280;24370;51.986;4.666;2023-11-18T09:33:31;101925.53;;;13.95;60.22
38616;BME280;24370;51.986;4.666;2023-11-18T09:36:04;101912.38;;;13.96;61.42
38616;BME280;24370;51.986;4.666;2023-11-18T09:38:37;101914.94;;;14.05;61.15
38616;BME280;24370;51.986;4.666;2023-11-18T09:41:07;101918.19;;;14.35;59.87
38616;BME280;24370;51.986;4.666;2023-11-18T09:43:37;101922.47;;;14.49;60.23
38616;BME280;24370;51.986;4.666;2023-11-18T09:48:45;101906.03;;;14.19;59.82
38616;BME280;24370;51.986;4.666;2023-11-18T09:51:14;101906.84;;;14.32;59.99
38616;BME280;24370;51.986;4.666;2023-11-18T09:53:44;101905.41;;;13.86;62.29
38616;BME280;24370;51.986;4.666;2023-11-18T09:56:19;101909.34;;;14.46;60.55
38616;BME280;24370;51.986;4.666;2023-11-18T09:58:59;101887.00;;;14.90;58.77
38616;BME280;24370;51.986;4.666;2023-11-18T10:01:28;101886.06;;;14.94;58.36
38616;BME280;24370;51.986;4.666;2023-11-18T10:03:58;101879.16;;;14.85;58.97
38616;BME280;24370;51.986;4.666;2023-11-18T10:06:25;101888.31;;;14.44;60.83
38616;BME280;24370;51.986;4.666;2023-11-18T10:08:53;101903.22;;;14.42;59.40
38616;BME280;24370;51.986;4.666;2023-11-18T10:11:20;101887.16;;;14.74;59.56
38616;BME280;24370;51.986;4.666;2023-11-18T10:13:48;101882.03;;;14.59;61.08
38616;BME280;24370;51.986;4.666;2023-11-18T10:16:14;101887.50;;;14.36;60.44
38616;BME280;24370;51.986;4.666;2023-11-18T10:18:39;101899.41;;;14.79;60.60
38616;BME280;24370;51.986;4.666;2023-11-18T10:21:14;101900.75;;;15.14;58.64
38616;BME280;24370;51.986;4.666;2023-11-18T10:23:58;101885.09;;;15.04;58.71
38616;BME280;24370;51.986;4.666;2023-11-18T10:26:25;101871.38;;;14.74;60.10
38616;BME280;24370;51.986;4.666;2023-11-18T10:28:50;101854.50;;;14.92;59.89
38616;BME280;24370;51.986;4.666;2023-11-18T10:31:18;101846.13;;;14.53;62.23
38616;BME280;24370;51.986;4.666;2023-11-18T10:33:44;101838.09;;;14.70;60.57
38616;BME280;24370;51.986;4.666;2023-11-18T10:36:19;101850.41;;;14.65;60.34
38616;BME280;24370;51.986;4.666;2023-11-18T10:38:48;101842.22;;;14.91;60.63
38616;BME280;24370;51.986;4.666;2023-11-18T10:41:21;101847.78;;;14.65;60.55
38616;BME280;24370;51.986;4.666;2023-11-18T10:43:46;101852.31;;;14.51;62.75
38616;BME280;24370;51.986;4.666;2023-11-18T10:46:14;101847.72;;;14.71;61.37
38616;BME280;24370;51.986;4.666;2023-11-18T10:48:40;101839.94;;;14.56;62.54
38616;BME280;24370;51.986;4.666;2023-11-18T10:51:08;101830.31;;;14.58;62.29
38616;BME280;24370;51.986;4.666;2023-11-18T10:53:35;101821.41;;;14.71;62.31
38616;BME280;24370;51.986;4.666;2023-11-18T10:56:05;101810.47;;;14.26;64.01
38616;BME280;24370;51.986;4.666;2023-11-18T10:58:37;101781.06;;;14.71;63.25
38616;BME280;24370;51.986;4.666;2023-11-18T11:01:06;101762.22;;;14.30;64.05
38616;BME280;24370;51.986;4.666;2023-11-18T11:03:52;101735.72;;;14.46;63.97
38616;BME280;24370;51.986;4.666;2023-11-18T11:06:21;101721.81;;;14.37;64.93
38616;BME280;24370;51.986;4.666;2023-11-18T11:08:49;101691.94;;;14.41;63.58
38616;BME280;24370;51.986;4.666;2023-11-18T11:11:17;101681.34;;;14.48;65.50
38616;BME280;24370;51.986;4.666;2023-11-18T11:13:49;101703.16;;;13.78;69.40
38616;BME280;24370;51.986;4.666;2023-11-18T11:16:18;101700.31;;;14.01;67.52
38616;BME280;24370;51.986;4.666;2023-11-18T11:18:47;101677.88;;;14.46;66.18
38616;BME280;24370;51.986;4.666;2023-11-18T11:21:20;101680.84;;;14.15;67.26
38616;BME280;24370;51.986;4.666;2023-11-18T11:24:11;101680.50;;;14.46;66.94
38616;BME280;24370;51.986;4.666;2023-11-18T11:29:29;101658.34;;;14.62;65.37
38616;BME280;24370;51.986;4.666;2023-11-18T11:32:26;101648.28;;;14.27;68.03
38616;BME280;24370;51.986;4.666;2023-11-18T11:34:59;101615.56;;;14.48;66.26
38616;BME280;24370;51.986;4.666;2023-11-18T11:37:32;101594.38;;;14.63;66.89
38616;BME280;24370;51.986;4.666;2023-11-18T11:40:00;101580.09;;;14.80;65.30
38616;BME280;24370;51.986;4.666;2023-11-18T11:42:31;101572.88;;;14.29;67.94
38616;BME280;24370;51.986;4.666;2023-11-18T11:44:56;101543.31;;;14.73;67.02
38616;BME280;24370;51.986;4.666;2023-11-18T11:47:24;101547.69;;;14.14;67.46
38616;BME280;24370;51.986;4.666;2023-11-18T11:50:11;101554.09;;;15.13;66.36
38616;BME280;24370;51.986;4.666;2023-11-18T11:52:46;101553.00;;;14.70;66.23
38616;BME280;24370;51.986;4.666;2023-11-18T11:57:58;101557.53;;;14.60;68.23
38616;BME280;24370;51.986;4.666;2023-11-18T12:00:23;101557.69;;;14.48;68.01
38616;BME280;24370;51.986;4.666;2023-11-18T12:02:52;101552.59;;;14.98;65.74
38616;BME280;24370;51.986;4.666;2023-11-18T12:05:20;101544.13;;;14.18;69.02
38616;BME280;24370;51.986;4.666;2023-11-18T12:07:52;101542.16;;;13.64;72.50
38616;BME280;24370;51.986;4.666;2023-11-18T12:10:20;101529.50;;;14.59;69.03
38616;BME280;24370;51.986;4.666;2023-11-18T12:12:46;101521.69;;;13.92;72.37
38616;BME280;24370;51.986;4.666;2023-11-18T12:15:12;101522.72;;;13.79;73.61
38616;BME280;24370;51.986;4.666;2023-11-18T12:20:40;101536.09;;;14.85;68.07
38616;BME280;24370;51.986;4.666;2023-11-18T12:23:23;101553.44;;;14.98;67.70
38616;BME280;24370;51.986;4.666;2023-11-18T12:25:56;101543.63;;;14.50;68.82
38616;BME280;24370;51.986;4.666;2023-11-18T12:30:55;101511.09;;;15.10;67.45
38616;BME280;24370;51.986;4.666;2023-11-18T12:33:22;101493.25;;;14.19;70.05
38616;BME280;24370;51.986;4.666;2023-11-18T12:41:04;101450.16;;;14.31;70.82
38616;BME280;24370;51.986;4.666;2023-11-18T12:44:16;101451.69;;;14.44;68.70
38616;BME280;24370;51.986;4.666;2023-11-18T12:46:53;101448.94;;;15.03;67.18
38616;BME280;24370;51.986;4.666;2023-11-18T12:49:21;101446.50;;;13.79;71.96
38616;BME280;24370;51.986;4.666;2023-11-18T12:51:52;101446.16;;;14.03;71.75
38616;BME280;24370;51.986;4.666;2023-11-18T12:54:25;101446.44;;;14.44;71.40
38616;BME280;24370;51.986;4.666;2023-11-18T12:56:55;101450.03;;;14.38;70.89
38616;BME280;24370;51.986;4.666;2023-11-18T12:59:21;101429.00;;;14.38;72.39
38616;BME280;24370;51.986;4.666;2023-11-18T13:01:47;101422.81;;;14.39;73.02
38616;BME280;24370;51.986;4.666;2023-11-18T13:04:18;101389.91;;;15.14;68.72
38616;BME280;24370;51.986;4.666;2023-11-18T13:06:46;101406.56;;;14.70;69.72
38616;BME280;24370;51.986;4.666;2023-11-18T13:09:11;101381.78;;;14.81;68.88
38616;BME280;24370;51.986;4.666;2023-11-18T13:11:48;101369.09;;;15.45;66.44
38616;BME280;24370;51.986;4.666;2023-11-18T13:14:14;101354.09;;;14.59;70.16
38616;BME280;24370;51.986;4.666;2023-11-18T13:16:39;101366.44;;;15.03;69.04
38616;BME280;24370;51.986;4.666;2023-11-18T13:19:06;101356.13;;;15.34;68.45